createdAt,value
2019-03-13T00:03:32.820Z,56.70
2019-03-13T00:06:33.855Z,56.89
2019-03-13T00:09:17.852Z,56.77
2019-03-13T00:11:50.898Z,56.77
2019-03-13T00:14:40.779Z,56.59
2019-03-13T00:17:30.762Z,56.08
2019-03-13T00:20:20.609Z,56.03
2019-03-13T00:22:51.051Z,56.43
2019-03-13T00:25:59.907Z,56.17
2019-03-13T00:28:49.770Z,56.17
2019-03-13T00:31:51.554Z,56.16
2019-03-13T00:34:22.973Z,56.16
2019-03-13T00:37:12.873Z,56.41
2019-03-13T00:40:14.694Z,57.10
2019-03-13T00:43:00.067Z,56.58
2019-03-13T00:45:43.113Z,56.70
2019-03-13T00:48:14.448Z,56.70
2019-03-13T00:51:03.903Z,57.64
2019-03-13T00:53:53.839Z,57.64
2019-03-13T00:56:43.677Z,58.30
2019-03-13T00:59:33.514Z,58.63
2019-03-13T01:02:44.062Z,58.51
2019-03-13T01:05:52.780Z,58.51
2019-03-13T01:08:42.625Z,58.76
2019-03-13T01:11:43.788Z,58.34
2019-03-13T01:14:25.665Z,58.39
2019-03-13T01:16:56.171Z,58.39
2019-03-13T01:19:58.117Z,58.25
2019-03-13T01:22:31.202Z,58.25
2019-03-13T01:25:21.027Z,58.75
2019-03-13T01:28:10.853Z,59.17
2019-03-13T01:31:19.535Z,59.65
2019-03-13T01:37:10.815Z,59.73
2019-03-13T01:40:00.724Z,60.42
2019-03-13T01:42:50.634Z,60.79
2019-03-13T01:45:40.575Z,60.81
2019-03-13T01:48:11.324Z,61.14
2019-03-13T01:51:13.167Z,61.48
2019-03-13T01:53:44.142Z,61.48
2019-03-13T01:56:46.273Z,61.30
2019-03-13T01:59:28.614Z,61.61
2019-03-13T02:01:59.331Z,61.61
2019-03-13T02:04:49.142Z,61.98
2019-03-13T02:07:51.103Z,62.16
2019-03-13T02:10:23.331Z,62.16
2019-03-13T02:13:13.367Z,62.52
2019-03-13T02:16:03.200Z,62.97
2019-03-13T02:18:53.038Z,63.06
2019-03-13T02:21:42.871Z,62.60
2019-03-13T02:24:45.088Z,62.64
2019-03-13T02:27:29.197Z,62.71
2019-03-13T02:29:59.690Z,62.71
2019-03-13T02:33:01.455Z,63.10
2019-03-13T02:35:33.390Z,63.10
2019-03-13T02:38:23.234Z,62.98
2019-03-13T02:41:24.171Z,62.11
2019-03-13T02:43:56.545Z,62.11
2019-03-13T02:46:58.269Z,62.69
2019-03-13T02:49:29.599Z,62.69
2019-03-13T02:52:19.477Z,62.67
2019-03-13T02:55:09.710Z,62.55
2019-03-13T02:57:59.612Z,62.36
2019-03-13T03:01:08.399Z,62.70
2019-03-13T03:04:00.165Z,62.88
2019-03-13T03:07:01.837Z,62.60
2019-03-13T03:09:34.276Z,62.60
2019-03-13T03:15:26.624Z,62.21
2019-03-13T03:18:28.509Z,62.26
2019-03-13T03:20:59.881Z,62.26
2019-03-13T03:24:08.769Z,61.83
2019-03-13T03:27:10.491Z,62.23
2019-03-13T03:29:42.740Z,62.23
2019-03-13T03:32:32.575Z,62.07
2019-03-13T03:35:22.407Z,62.13
2019-03-13T03:38:12.264Z,62.17
2019-03-13T03:41:13.687Z,62.06
2019-03-13T03:43:56.966Z,61.42
2019-03-13T03:46:39.772Z,61.03
2019-03-13T03:49:11.903Z,61.03
2019-03-13T03:52:01.781Z,60.89
2019-03-13T03:55:03.657Z,60.57
2019-03-13T03:57:35.782Z,60.57
2019-03-13T04:00:25.675Z,60.59
2019-03-13T04:03:15.520Z,61.08
2019-03-13T04:06:05.477Z,60.17
2019-03-13T04:08:37.829Z,60.05
2019-03-13T04:11:30.057Z,60.42
2019-03-13T04:14:02.936Z,60.42
2019-03-13T04:16:52.829Z,60.66
2019-03-13T04:19:42.669Z,60.16
2019-03-13T04:22:32.608Z,60.46
2019-03-13T04:25:34.318Z,59.54
2019-03-13T04:28:06.640Z,59.54
2019-03-13T04:30:56.434Z,59.44
2019-03-13T04:33:46.267Z,60.40
2019-03-13T04:36:55.080Z,61.00
2019-03-13T04:39:44.930Z,61.00
2019-03-13T04:42:34.720Z,61.09
2019-03-13T04:45:35.688Z,61.37
2019-03-13T04:48:06.111Z,61.37
2019-03-13T04:51:07.152Z,62.00
2019-03-13T04:53:39.069Z,62.00
2019-03-13T04:56:40.721Z,61.03
2019-03-13T04:59:12.168Z,61.03
2019-03-13T05:02:02.011Z,61.79
2019-03-13T05:05:03.674Z,60.90
2019-03-13T05:07:36.717Z,60.90
2019-03-13T05:10:38.146Z,59.93
2019-03-13T05:13:09.291Z,59.93
2019-03-13T05:16:06.091Z,60.44
2019-03-13T05:18:52.889Z,59.35
2019-03-13T05:21:24.124Z,59.35
2019-03-13T05:24:13.982Z,59.77
2019-03-13T05:26:44.606Z,59.04
2019-03-13T05:29:34.468Z,58.73
2019-03-13T05:32:24.298Z,58.16
2019-03-13T05:35:14.157Z,58.83
2019-03-13T05:37:44.667Z,58.75
2019-03-13T05:40:34.526Z,58.76
2019-03-13T05:43:36.382Z,60.52
2019-03-13T05:46:10.970Z,60.52
2019-03-13T05:48:41.485Z,59.50
2019-03-13T05:51:31.362Z,58.74
2019-03-13T05:54:21.279Z,58.82
2019-03-13T05:56:51.755Z,58.13
2019-03-13T05:59:41.572Z,58.54
2019-03-13T06:02:31.445Z,58.94
2019-03-13T06:05:21.275Z,61.21
2019-03-13T06:07:51.930Z,61.94
2019-03-13T06:10:42.647Z,62.26
2019-03-13T06:13:32.508Z,62.86
2019-03-13T06:16:22.352Z,61.59
2019-03-13T06:19:12.182Z,61.94
2019-03-13T06:22:02.005Z,62.75
2019-03-13T06:24:32.474Z,63.79
2019-03-13T06:27:22.285Z,64.54
2019-03-13T06:30:13.089Z,65.24
2019-03-13T06:32:44.632Z,66.28
2019-03-13T06:35:34.520Z,67.10
2019-03-13T06:38:24.367Z,67.54
2019-03-13T06:41:14.250Z,67.64
2019-03-13T06:43:44.883Z,68.04
2019-03-13T06:46:34.733Z,67.98
2019-03-13T06:49:24.604Z,68.25
2019-03-13T06:52:14.589Z,69.24
2019-03-13T06:54:45.165Z,69.25
2019-03-13T06:57:35.074Z,69.29
2019-03-13T07:00:44.418Z,69.88
2019-03-13T07:07:17.676Z,70.94
2019-03-13T07:10:18.770Z,70.51
2019-03-13T07:13:27.578Z,70.89
2019-03-13T07:16:36.283Z,71.57
2019-03-13T07:19:45.071Z,70.67
2019-03-13T07:22:53.764Z,70.19
2019-03-13T07:26:02.970Z,69.41
2019-03-13T07:29:12.824Z,69.09
2019-03-13T07:31:57.447Z,69.81
2019-03-13T07:35:06.139Z,69.25
2019-03-13T07:38:15.886Z,69.44
2019-03-13T07:41:11.825Z,69.62
2019-03-13T07:44:20.625Z,69.27
2019-03-13T07:47:29.556Z,67.35
2019-03-13T07:50:18.868Z,65.62
2019-03-13T07:53:27.643Z,63.46
2019-03-13T07:56:37.247Z,61.92
2019-03-13T07:59:26.700Z,60.95
2019-03-13T08:02:35.466Z,59.73
2019-03-13T08:05:27.462Z,58.16
2019-03-13T08:08:33.256Z,56.85
2019-03-13T08:11:44.240Z,56.65
2019-03-13T08:14:39.131Z,55.93
2019-03-13T08:17:47.774Z,55.98
2019-03-13T08:20:56.483Z,54.97
2019-03-13T08:24:05.176Z,54.89
2019-03-13T08:27:13.903Z,54.42
2019-03-13T08:30:22.603Z,54.85
2019-03-13T08:33:31.371Z,55.02
2019-03-13T08:36:31.282Z,54.97
2019-03-13T08:39:39.997Z,55.56
2019-03-13T08:42:48.743Z,55.37
2019-03-13T08:45:57.450Z,55.55
2019-03-13T08:48:46.871Z,54.82
2019-03-13T08:51:55.598Z,54.84
2019-03-13T08:55:04.294Z,54.87
2019-03-13T08:58:13.012Z,54.89
2019-03-13T09:01:21.700Z,54.84
2019-03-13T09:04:30.391Z,55.03
2019-03-13T09:07:39.095Z,55.22
2019-03-13T09:10:41.171Z,55.07
2019-03-13T09:13:49.869Z,54.34
2019-03-13T09:16:58.585Z,53.81
2019-03-13T09:20:07.263Z,53.21
2019-03-13T09:23:15.973Z,53.18
2019-03-13T09:26:24.675Z,52.44
2019-03-13T09:29:33.504Z,51.57
2019-03-13T09:32:42.276Z,51.33
2019-03-13T09:35:51.010Z,50.56
2019-03-13T09:38:59.696Z,50.53
2019-03-13T09:42:08.461Z,50.74
2019-03-13T09:45:08.258Z,50.06
2019-03-13T09:48:17.081Z,50.81
2019-03-13T09:51:25.984Z,50.64
2019-03-13T09:54:34.728Z,50.39
2019-03-13T09:57:43.498Z,50.02
2019-03-13T10:00:52.197Z,50.47
2019-03-13T10:04:00.926Z,49.98
2019-03-13T10:07:09.657Z,49.94
2019-03-13T10:10:18.382Z,50.03
2019-03-13T10:13:27.091Z,49.96
2019-03-13T10:16:35.866Z,50.22
2019-03-13T10:19:44.575Z,50.29
2019-03-13T10:22:53.263Z,50.30
2019-03-13T10:26:01.993Z,50.54
2019-03-13T10:29:10.696Z,50.49
2019-03-13T10:32:19.512Z,50.36
2019-03-13T10:35:28.263Z,50.16
2019-03-13T10:38:36.974Z,49.31
2019-03-13T10:41:45.697Z,48.25
2019-03-13T10:44:41.363Z,48.53
2019-03-13T10:47:50.088Z,48.45
2019-03-13T10:50:50.160Z,48.64
2019-03-13T10:53:58.887Z,48.73
2019-03-13T10:57:07.643Z,48.85
2019-03-13T11:00:16.337Z,49.19
2019-03-13T11:03:25.092Z,48.58
2019-03-13T11:06:33.940Z,48.30
2019-03-13T11:09:42.715Z,47.96
2019-03-13T11:12:51.373Z,47.08
2019-03-13T11:16:00.128Z,46.26
2019-03-13T11:18:56.220Z,46.81
2019-03-13T11:21:46.858Z,46.37
2019-03-13T11:24:42.312Z,45.64
2019-03-13T11:27:51.066Z,45.14
2019-03-13T11:30:59.901Z,44.50
2019-03-13T11:34:08.686Z,44.51
2019-03-13T11:37:17.442Z,44.13
2019-03-13T11:40:27.314Z,43.68
2019-03-13T11:43:18.727Z,42.46
2019-03-13T11:46:27.471Z,42.21
2019-03-13T11:49:36.176Z,42.41
2019-03-13T11:52:44.920Z,42.10
2019-03-13T11:55:53.652Z,41.59
2019-03-13T11:58:50.213Z,41.38
2019-03-13T12:01:59.002Z,41.95
2019-03-13T12:05:07.872Z,41.88
2019-03-13T12:08:16.806Z,41.51
2019-03-13T12:11:25.524Z,41.26
2019-03-13T12:14:34.332Z,41.31
2019-03-13T12:17:30.982Z,40.09
2019-03-13T12:20:40.410Z,40.22
2019-03-13T12:23:47.038Z,39.98
2019-03-13T12:26:55.796Z,39.99
2019-03-13T12:29:51.417Z,40.69
2019-03-13T12:33:00.182Z,40.52
2019-03-13T12:36:08.935Z,40.65
2019-03-13T12:39:17.679Z,40.50
2019-03-13T12:42:26.393Z,39.84
2019-03-13T12:45:35.139Z,40.07
2019-03-13T12:48:16.842Z,40.01
2019-03-13T12:51:12.737Z,40.09
2019-03-13T12:54:21.509Z,40.33
2019-03-13T12:57:30.358Z,41.11
2019-03-13T13:00:39.203Z,41.02
2019-03-13T13:03:47.943Z,40.71
2019-03-13T13:06:56.651Z,39.68
2019-03-13T13:10:00.416Z,39.22
2019-03-13T13:13:09.099Z,39.02
2019-03-13T13:16:17.832Z,39.04
2019-03-13T13:18:51.689Z,39.85
2019-03-13T13:21:41.578Z,40.17
2019-03-13T13:24:12.337Z,40.04
2019-03-13T13:27:02.211Z,39.87
2019-03-13T13:29:52.081Z,40.63
2019-03-13T13:32:42.033Z,40.08
2019-03-13T13:35:32.025Z,39.58
2019-03-13T13:38:21.887Z,40.38
2019-03-13T13:41:11.769Z,40.72
2019-03-13T13:44:01.722Z,41.14
2019-03-13T13:46:51.563Z,40.70
2019-03-13T13:49:41.482Z,41.04
2019-03-13T13:52:31.368Z,41.33
2019-03-13T13:55:21.296Z,41.84
2019-03-13T13:58:11.163Z,41.67
2019-03-13T14:01:01.430Z,41.38
2019-03-13T14:03:51.312Z,41.75
2019-03-13T14:06:21.786Z,42.51
2019-03-13T14:09:11.635Z,42.10
2019-03-13T14:12:01.536Z,42.73
2019-03-13T14:14:51.382Z,43.26
2019-03-13T14:17:41.284Z,42.87
2019-03-13T14:20:31.137Z,42.91
2019-03-13T14:23:21.022Z,42.13
2019-03-13T14:25:51.572Z,42.27
2019-03-13T14:28:41.447Z,42.62
2019-03-13T14:31:31.275Z,43.49
2019-03-13T14:34:21.177Z,44.01
2019-03-13T14:36:51.632Z,44.90
2019-03-13T14:39:41.502Z,44.81
2019-03-13T14:42:31.383Z,45.00
2019-03-13T14:45:21.359Z,45.05
2019-03-13T14:48:11.211Z,45.30
2019-03-13T14:51:01.141Z,45.26
2019-03-13T14:53:51.090Z,45.68
2019-03-13T14:56:41.044Z,46.36
2019-03-13T14:59:30.880Z,46.72
2019-03-13T15:02:20.752Z,47.01
2019-03-13T15:05:10.752Z,47.19
2019-03-13T15:08:00.637Z,47.82
2019-03-13T15:10:50.466Z,47.82
2019-03-13T15:13:20.954Z,47.97
2019-03-13T15:16:10.790Z,48.31
2019-03-13T15:19:00.746Z,49.57
2019-03-13T15:21:50.578Z,48.29
2019-03-13T15:24:40.431Z,48.81
2019-03-13T15:27:30.236Z,49.73
2019-03-13T15:30:21.792Z,49.84
2019-03-13T15:33:11.679Z,50.20
2019-03-13T15:36:01.570Z,50.65
2019-03-13T15:38:51.421Z,51.28
2019-03-13T15:41:41.317Z,51.63
2019-03-13T15:44:31.207Z,51.91
2019-03-13T15:47:21.090Z,51.99
2019-03-13T15:50:11.896Z,52.29
2019-03-13T15:52:43.062Z,52.91
2019-03-13T15:55:32.943Z,52.22
2019-03-13T15:58:22.840Z,51.53
2019-03-13T16:01:12.682Z,51.04
2019-03-13T16:04:02.608Z,50.77
2019-03-13T16:06:52.458Z,51.10
2019-03-13T16:09:42.315Z,50.95
2019-03-13T16:12:32.173Z,51.29
2019-03-13T16:18:07.482Z,50.41
2019-03-13T16:20:43.692Z,51.03
2019-03-13T16:23:33.561Z,51.12
2019-03-13T16:26:23.511Z,51.37
2019-03-13T16:29:13.426Z,51.44
2019-03-13T16:32:03.482Z,51.44
2019-03-13T16:34:53.591Z,51.85
2019-03-13T16:37:43.421Z,52.07
2019-03-13T16:40:33.304Z,52.48
2019-03-13T16:43:23.183Z,53.41
2019-03-13T16:46:13.147Z,54.43
2019-03-13T16:49:05.125Z,54.62
2019-03-13T16:51:55.024Z,54.63
2019-03-13T16:54:44.966Z,55.20
2019-03-13T16:57:34.890Z,55.72
2019-03-13T17:00:25.256Z,56.10
2019-03-13T17:03:15.113Z,56.43
2019-03-13T17:05:45.716Z,56.36
2019-03-13T17:08:35.546Z,56.71
2019-03-13T17:11:25.482Z,56.89
2019-03-13T17:14:15.375Z,57.25
2019-03-13T17:16:45.874Z,56.97
2019-03-13T17:19:35.743Z,57.02
2019-03-13T17:22:06.536Z,57.41
2019-03-13T17:24:56.396Z,57.40
2019-03-13T17:27:46.303Z,57.63
2019-03-13T17:33:23.535Z,58.10
2019-03-13T17:36:13.379Z,58.57
2019-03-13T17:42:00.558Z,58.37
2019-03-13T17:44:50.463Z,60.19
2019-03-13T17:50:24.580Z,67.51
2019-03-13T17:53:14.433Z,68.70
2019-03-13T17:56:04.367Z,69.88
2019-03-13T17:58:54.243Z,70.49
2019-03-13T18:01:44.103Z,70.02
2019-03-13T18:04:34.041Z,69.21
2019-03-13T18:07:24.024Z,69.25
2019-03-13T18:10:15.702Z,69.14
2019-03-13T18:12:46.258Z,69.54
2019-03-13T18:15:36.249Z,70.14
2019-03-13T18:20:51.066Z,72.80
2019-03-13T18:23:40.931Z,73.90
2019-03-13T18:26:30.847Z,74.53
2019-03-13T18:29:20.687Z,74.94
2019-03-13T18:32:10.592Z,75.21
2019-03-13T18:35:00.471Z,75.19
2019-03-13T18:37:50.588Z,75.69
2019-03-13T18:40:40.499Z,76.00
2019-03-13T18:43:10.987Z,75.82
2019-03-13T18:46:00.840Z,76.10
2019-03-13T18:48:50.750Z,75.50
2019-03-13T18:51:40.641Z,75.60
2019-03-13T18:54:30.502Z,76.12
2019-03-13T18:57:20.402Z,75.99
2019-03-13T19:03:17.276Z,76.34
2019-03-13T19:06:07.128Z,76.47
2019-03-13T19:08:56.981Z,76.24
2019-03-13T19:11:46.813Z,76.12
2019-03-13T19:14:36.683Z,75.75
2019-03-13T19:17:26.548Z,75.65
2019-03-13T19:20:17.958Z,75.96
2019-03-13T19:22:49.222Z,76.19
2019-03-13T19:25:19.963Z,76.08
2019-03-13T19:28:09.859Z,76.22
2019-03-13T19:30:59.795Z,76.07
2019-03-13T19:33:49.686Z,76.07
2019-03-13T19:36:39.626Z,75.97
2019-03-13T19:39:15.976Z,75.70
2019-03-13T19:41:46.449Z,75.45
2019-03-13T19:44:36.329Z,74.78
2019-03-13T19:47:26.228Z,74.19
2019-03-13T19:50:16.245Z,72.62
2019-03-13T19:53:06.210Z,71.48
2019-03-13T19:55:56.080Z,71.56
2019-03-13T19:58:45.956Z,71.52
2019-03-13T20:01:35.871Z,71.54
2019-03-13T20:04:25.805Z,71.49
2019-03-13T20:07:15.850Z,71.38
2019-03-13T20:09:46.348Z,70.98
2019-03-13T20:12:36.182Z,71.12
2019-03-13T20:15:26.191Z,71.13
2019-03-13T20:18:16.062Z,71.04
2019-03-13T20:20:46.566Z,71.15
2019-03-13T20:23:36.409Z,71.21
2019-03-13T20:26:26.293Z,71.23
2019-03-13T20:32:40.992Z,71.39
2019-03-13T20:35:30.970Z,71.20
2019-03-13T20:38:21.412Z,71.85
2019-03-13T20:41:11.333Z,72.22
2019-03-13T20:44:01.227Z,71.86
2019-03-13T20:46:51.104Z,71.48
2019-03-13T20:49:41.014Z,72.31
2019-03-13T20:52:30.856Z,73.07
2019-03-13T20:55:01.410Z,73.35
2019-03-13T20:57:51.369Z,73.66
2019-03-13T21:00:41.236Z,74.09
2019-03-13T21:03:31.060Z,74.54
2019-03-13T21:06:20.981Z,75.50
2019-03-13T21:09:10.971Z,75.83
2019-03-13T21:12:00.873Z,76.29
2019-03-13T21:14:31.578Z,76.68
2019-03-13T21:17:21.453Z,76.93
2019-03-13T21:20:12.815Z,77.58
2019-03-13T21:22:43.689Z,77.83
2019-03-13T21:25:33.521Z,78.09
2019-03-13T21:28:23.426Z,78.46
2019-03-13T21:31:13.293Z,78.80
2019-03-13T21:34:03.195Z,79.11
2019-03-13T21:36:53.043Z,79.21
2019-03-13T21:39:42.947Z,79.30
2019-03-13T21:42:32.876Z,79.46
2019-03-13T21:45:23.303Z,79.54
2019-03-13T21:48:14.517Z,79.04
2019-03-13T21:51:04.384Z,79.15
2019-03-13T21:53:54.241Z,78.83
2019-03-13T21:56:44.115Z,78.50
2019-03-13T21:59:33.945Z,78.60
2019-03-13T22:02:32.644Z,78.51
2019-03-13T22:05:24.984Z,79.17
2019-03-13T22:07:58.351Z,79.66
2019-03-13T22:10:28.799Z,80.04
2019-03-13T22:13:18.645Z,80.32
2019-03-13T22:16:08.606Z,80.77
2019-03-13T22:18:58.611Z,81.19
2019-03-13T22:21:48.468Z,81.40
2019-03-13T22:24:31.060Z,80.71
2019-03-13T22:27:01.751Z,80.71
2019-03-13T22:29:51.602Z,81.04
2019-03-13T22:32:41.463Z,81.04
2019-03-13T22:35:50.275Z,81.15
2019-03-13T22:38:52.197Z,81.23
2019-03-13T22:41:22.832Z,81.23
2019-03-13T22:44:12.698Z,81.38
2019-03-13T22:47:13.889Z,81.20
2019-03-13T22:49:56.961Z,80.21
2019-03-13T22:52:41.174Z,79.17
2019-03-13T22:55:13.015Z,79.17
2019-03-13T22:58:02.855Z,79.06
2019-03-13T23:01:15.412Z,79.04
2019-03-13T23:03:57.360Z,78.35
2019-03-13T23:06:30.045Z,78.35
2019-03-13T23:09:38.897Z,79.76
2019-03-13T23:12:09.424Z,79.76
2019-03-13T23:14:59.278Z,80.40
2019-03-13T23:17:49.186Z,80.01
2019-03-13T23:20:39.023Z,77.35
2019-03-13T23:23:28.929Z,75.73
2019-03-13T23:26:18.777Z,71.54
2019-03-13T23:29:08.657Z,69.33
2019-03-13T23:32:17.509Z,64.05
2019-03-13T23:35:07.383Z,64.05
2019-03-13T23:37:57.226Z,62.11
2019-03-13T23:40:47.072Z,61.30
2019-03-13T23:43:36.917Z,60.41
2019-03-13T23:46:26.782Z,59.51
2019-03-13T23:49:16.608Z,58.53
2019-03-13T23:52:06.500Z,57.71
2019-03-13T23:54:56.351Z,57.32
2019-03-13T23:57:46.187Z,57.58
